Sample Charts Sidebar
> Live data! Your data is on the web site for you to access within minutes
 
> Detailed data is easily downloaded as data file, which can be opened with Excel
 
> Charts can be customised if necessary
  Chart 1
 

(A maximum of 50 rows are displayed here. Use "Export Data" to see all rows in the date range.)
Date Collected Temp
(Celcius)
Wind-chill
(Celcius)
Wind Speed
(km/hr)
Gust
(km/hr)
Wind Direction
(degrees)
2018-12-15 10:00 12.8 12.8 1 3 238
2018-12-15 09:00 12.4 12.4 1 2 239
2018-12-15 08:00 12.1 12.1 0 1 270
2018-12-15 07:00 12.0 11.9 0 1 203
2018-12-15 06:00 11.9 11.9 1 2 240
2018-12-15 05:00 12.0 11.9 2 5 214
2018-12-15 04:00 12.1 12.0 2 6 216
2018-12-15 03:00 12.3 11.7 3 7 223
2018-12-15 02:00 12.4 12.2 2 7 233
2018-12-15 01:00 12.4 12.4 2 5 240
2018-12-15 00:00 12.7 11.8 3 10 234
2018-12-14 23:00 12.8 12.2 3 10 252
2018-12-14 22:00 14.0 13.9 2 7 249
2018-12-14 21:00 15.3 15.3 1 2 72
2018-12-14 20:00 16.5 15.6 4 11 315
2018-12-14 19:00 17.2 16.4 4 9 319
2018-12-14 18:00 17.3 15.5 5 18 341
2018-12-14 17:00 17.6 15.1 6 17 355
2018-12-14 16:00 17.9 14.9 7 21 355
2018-12-14 15:00 17.9 14.5 8 22 344
2018-12-14 14:00 17.8 14.3 8 20 353
2018-12-14 13:00 18.3 15.0 8 19 9
2018-12-14 12:00 19.0 15.4 9 27 353
2018-12-14 11:00 18.3 13.6 10 25 359
2018-12-14 10:00 16.3 12.9 7 21 348
2018-12-14 09:00 17.2 13.4 8 22 348
2018-12-14 08:00 17.1 14.5 6 21 347
2018-12-14 07:00 17.1 13.6 8 19 359
2018-12-14 06:00 17.4 15.0 6 16 3
2018-12-14 05:00 17.1 15.4 5 15 13
2018-12-14 04:00 17.5 16.6 4 11 19
2018-12-14 03:00 17.7 15.2 7 19 357
2018-12-14 02:00 17.8 16.3 5 12 14
2018-12-14 01:00 17.9 16.4 5 19 342
2018-12-14 00:00 18.3 17.6 4 8 24
2018-12-13 23:00 18.3 16.7 5 12 18
2018-12-13 22:00 18.5 15.8 7 19 10
2018-12-13 21:00 18.4 16.6 5 16 18
2018-12-13 20:00 18.5 15.8 7 19 347
2018-12-13 19:00 19.9 17.5 7 21 346
2018-12-13 18:00 20.0 16.6 9 19 347
2018-12-13 17:00 20.4 17.2 9 25 351
2018-12-13 16:00 20.7 18.5 7 21 5
2018-12-13 15:00 20.7 19.1 5 15 350
2018-12-13 14:00 20.4 16.5 10 28 348
2018-12-13 13:00 20.0 16.7 9 30 3
2018-12-13 12:00 19.9 16.8 8 23 6
2018-12-13 11:00 20.8 17.3 9 28 3
2018-12-13 10:00 20.5 17.4 8 21 13
2018-12-13 09:00 19.7 15.7 9 24 16